SWA3588 KSEA-KOAK
Flight info
| Callsign | SWA3588 |
|---|---|
| Flight time | N/A |
| Altitude | 39000 |
| Route | HAROB6 HISKU Q5 HUPTU SPAMY WNDSR2 |
| Aircraft | B737/M-SDE2E3FGHIRWXY/LB1 |
Departure
| Time | 2026-05-04 14:22 |
|---|---|
| Airport | Seattle–Tacoma International Airport (KSEA) |
Arrival
| Time | N/A |
|---|---|
| Airport | San Francisco Bay Oakland International Airport (KOAK) |
| Time | Latitude | Longitude | Altitude | Speed | Heading |
|---|---|---|---|---|---|
| 2026-05-04 14:01 | 47.44092 | -122.30315 | 369 ft | 0 kts | 315° |
| 2026-05-04 14:13 | 47.44091 | -122.30313 | 388 ft | 2 kts | 315° |
| 2026-05-04 14:13 | 47.44074 | -122.30288 | 388 ft | 4 kts | 318° |
| 2026-05-04 14:14 | 47.44055 | -122.30261 | 388 ft | 4 kts | 303° |
| 2026-05-04 14:14 | 47.44049 | -122.30202 | 388 ft | 1 kts | 239° |
| 2026-05-04 14:14 | 47.44050 | -122.30199 | 388 ft | 1 kts | 239° |
| 2026-05-04 14:16 | 47.44049 | -122.30203 | 388 ft | 2 kts | 239° |
| 2026-05-04 14:17 | 47.43991 | -122.30444 | 384 ft | 19 kts | 270° |
| 2026-05-04 14:17 | 47.44014 | -122.30630 | 383 ft | 19 kts | 324° |
| 2026-05-04 14:17 | 47.44284 | -122.30634 | 390 ft | 23 kts | 0° |
| 2026-05-04 14:18 | 47.44467 | -122.30633 | 395 ft | 29 kts | 0° |
| 2026-05-04 14:18 | 47.44863 | -122.30629 | 403 ft | 27 kts | 0° |
| 2026-05-04 14:19 | 47.45209 | -122.30626 | 409 ft | 23 kts | 0° |
| 2026-05-04 14:19 | 47.45368 | -122.30623 | 425 ft | 23 kts | 0° |
| 2026-05-04 14:19 | 47.45540 | -122.30623 | 425 ft | 26 kts | 0° |
| 2026-05-04 14:19 | 47.45726 | -122.30620 | 423 ft | 26 kts | 0° |
| 2026-05-04 14:20 | 47.45902 | -122.30619 | 427 ft | 24 kts | 0° |
| 2026-05-04 14:20 | 47.46064 | -122.30618 | 437 ft | 23 kts | 0° |
| 2026-05-04 14:20 | 47.46221 | -122.30617 | 432 ft | 22 kts | 0° |
| 2026-05-04 14:21 | 47.46322 | -122.30772 | 434 ft | 20 kts | 189° |
| 2026-05-04 14:21 | 47.46097 | -122.30780 | 431 ft | 63 kts | 180° |
| 2026-05-04 14:21 | 47.45689 | -122.30783 | 423 ft | 113 kts | 180° |
| 2026-05-04 14:22 | 47.43116 | -122.30765 | 1666 ft | 163 kts | 179° |
| 2026-05-04 14:22 | 47.41943 | -122.30777 | 2267 ft | 178 kts | 181° |
| 2026-05-04 14:22 | 47.40586 | -122.30819 | 2571 ft | 210 kts | 181° |
| 2026-05-04 14:22 | 47.39031 | -122.30873 | 2855 ft | 238 kts | 182° |
| 2026-05-04 14:23 | 47.35400 | -122.31017 | 3926 ft | 276 kts | 183° |
| 2026-05-04 14:23 | 47.33538 | -122.31668 | 4805 ft | 278 kts | 210° |
| 2026-05-04 14:23 | 47.32120 | -122.33557 | 5714 ft | 277 kts | 239° |
| 2026-05-04 14:24 | 47.31432 | -122.36178 | 6635 ft | 276 kts | 260° |
| 2026-05-04 14:24 | 47.31115 | -122.38993 | 7546 ft | 281 kts | 263° |
| 2026-05-04 14:24 | 47.30826 | -122.41873 | 8455 ft | 287 kts | 263° |
| 2026-05-04 14:24 | 47.30606 | -122.44815 | 9435 ft | 292 kts | 270° |
| 2026-05-04 14:25 | 47.30654 | -122.47826 | 10331 ft | 297 kts | 274° |
| 2026-05-04 14:25 | 47.30919 | -122.54356 | 11182 ft | 341 kts | 274° |
| 2026-05-04 14:25 | 47.31048 | -122.57876 | 12025 ft | 346 kts | 274° |
| 2026-05-04 14:26 | 47.31161 | -122.61427 | 12980 ft | 349 kts | 274° |
| 2026-05-04 14:26 | 47.31266 | -122.65023 | 13900 ft | 353 kts | 274° |
| 2026-05-04 14:26 | 47.31366 | -122.68660 | 14727 ft | 358 kts | 274° |
| 2026-05-04 14:26 | 47.31464 | -122.72350 | 15569 ft | 363 kts | 274° |
| 2026-05-04 14:27 | 47.31525 | -122.76105 | 16403 ft | 370 kts | 269° |
| 2026-05-04 14:27 | 47.30944 | -122.79830 | 17205 ft | 380 kts | 251° |
| 2026-05-04 14:27 | 47.29970 | -122.83426 | 18012 ft | 386 kts | 250° |
| 2026-05-04 14:27 | 47.28934 | -122.87114 | 18679 ft | 393 kts | 249° |
| 2026-05-04 14:28 | 47.27891 | -122.90864 | 19407 ft | 398 kts | 250° |
| 2026-05-04 14:28 | 47.26858 | -122.94666 | 20166 ft | 401 kts | 251° |
| 2026-05-04 14:28 | 47.25826 | -122.98505 | 20896 ft | 406 kts | 251° |
| 2026-05-04 14:28 | 47.24728 | -123.02357 | 21585 ft | 413 kts | 243° |
| 2026-05-04 14:29 | 47.20625 | -123.08400 | 22976 ft | 427 kts | 217° |
| 2026-05-04 14:29 | 47.15767 | -123.13516 | 24117 ft | 438 kts | 217° |
| 2026-05-04 14:30 | 47.13302 | -123.16170 | 24676 ft | 442 kts | 217° |
| 2026-05-04 14:30 | 47.10823 | -123.18866 | 25261 ft | 445 kts | 216° |
| 2026-05-04 14:30 | 47.04982 | -123.21682 | 26324 ft | 450 kts | 178° |
| 2026-05-04 14:31 | 47.01859 | -123.21446 | 26909 ft | 451 kts | 173° |
| 2026-05-04 14:31 | 46.95559 | -123.20645 | 27947 ft | 458 kts | 172° |
| 2026-05-04 14:32 | 46.89212 | -123.19826 | 28935 ft | 464 kts | 173° |
| 2026-05-04 14:32 | 46.85978 | -123.19438 | 29414 ft | 468 kts | 173° |
| 2026-05-04 14:32 | 46.82722 | -123.19063 | 29890 ft | 471 kts | 173° |
| 2026-05-04 14:32 | 46.79449 | -123.18696 | 30322 ft | 473 kts | 173° |
| 2026-05-04 14:33 | 46.76156 | -123.18333 | 30715 ft | 476 kts | 173° |
| 2026-05-04 14:33 | 46.72845 | -123.17970 | 31071 ft | 479 kts | 173° |
| 2026-05-04 14:33 | 46.69508 | -123.17604 | 31409 ft | 482 kts | 172° |
| 2026-05-04 14:33 | 46.66152 | -123.17237 | 31721 ft | 485 kts | 172° |
| 2026-05-04 14:34 | 46.62822 | -123.16873 | 32034 ft | 488 kts | 172° |
| 2026-05-04 14:34 | 46.59435 | -123.16503 | 32449 ft | 488 kts | 172° |
| 2026-05-04 14:34 | 46.56057 | -123.16135 | 32932 ft | 486 kts | 172° |
| 2026-05-04 14:34 | 46.52691 | -123.15768 | 33389 ft | 485 kts | 172° |
| 2026-05-04 14:35 | 46.49324 | -123.15401 | 33756 ft | 486 kts | 171° |
| 2026-05-04 14:35 | 46.45945 | -123.15032 | 34088 ft | 487 kts | 171° |
| 2026-05-04 14:35 | 46.42570 | -123.14664 | 34416 ft | 487 kts | 171° |
| 2026-05-04 14:35 | 46.39197 | -123.14297 | 34790 ft | 486 kts | 171° |
| 2026-05-04 14:36 | 46.35827 | -123.13931 | 35109 ft | 486 kts | 171° |
| 2026-05-04 14:36 | 46.32493 | -123.13568 | 35361 ft | 487 kts | 171° |
| 2026-05-04 14:36 | 46.29107 | -123.13200 | 35628 ft | 489 kts | 171° |
| 2026-05-04 14:36 | 46.25712 | -123.12832 | 35925 ft | 489 kts | 171° |
| 2026-05-04 14:37 | 46.22317 | -123.12465 | 36220 ft | 489 kts | 171° |
| 2026-05-04 14:37 | 46.18922 | -123.12098 | 36474 ft | 490 kts | 171° |
| 2026-05-04 14:37 | 46.15516 | -123.11730 | 36720 ft | 491 kts | 171° |
| 2026-05-04 14:37 | 46.12108 | -123.11363 | 36990 ft | 492 kts | 171° |
| 2026-05-04 14:38 | 46.08696 | -123.10996 | 37263 ft | 492 kts | 171° |
| 2026-05-04 14:38 | 46.05284 | -123.10630 | 37511 ft | 492 kts | 171° |
| 2026-05-04 14:38 | 46.01907 | -123.10267 | 37753 ft | 493 kts | 171° |
| 2026-05-04 14:38 | 45.98485 | -123.09900 | 38007 ft | 493 kts | 171° |
| 2026-05-04 14:39 | 45.95063 | -123.09534 | 38275 ft | 494 kts | 170° |
| 2026-05-04 14:39 | 45.91632 | -123.09167 | 38491 ft | 494 kts | 170° |
| 2026-05-04 14:39 | 45.88206 | -123.08800 | 38702 ft | 495 kts | 170° |
| 2026-05-04 14:40 | 45.81326 | -123.08066 | 38937 ft | 499 kts | 170° |
| 2026-05-04 14:40 | 45.77910 | -123.07702 | 38952 ft | 499 kts | 171° |
| 2026-05-04 14:40 | 45.71010 | -123.06972 | 38935 ft | 494 kts | 171° |
| 2026-05-04 14:41 | 45.64184 | -123.06253 | 38963 ft | 491 kts | 170° |
| 2026-05-04 14:42 | 45.50617 | -123.04818 | 38969 ft | 487 kts | 170° |
| 2026-05-04 14:42 | 45.43900 | -123.04110 | 38975 ft | 487 kts | 170° |
| 2026-05-04 14:43 | 45.37130 | -123.03398 | 38977 ft | 489 kts | 170° |
| 2026-05-04 14:43 | 45.30339 | -123.02686 | 38975 ft | 490 kts | 170° |
| 2026-05-04 14:44 | 45.23563 | -123.01978 | 38974 ft | 492 kts | 169° |
| 2026-05-04 14:44 | 45.16724 | -123.01265 | 38991 ft | 494 kts | 169° |
| 2026-05-04 14:45 | 45.09862 | -123.00552 | 38975 ft | 495 kts | 169° |
| 2026-05-04 14:45 | 45.02993 | -122.99840 | 38967 ft | 495 kts | 169° |
| 2026-05-04 14:46 | 44.96117 | -122.99129 | 38981 ft | 495 kts | 169° |
| 2026-05-04 14:46 | 44.89289 | -122.98425 | 38985 ft | 495 kts | 169° |
| 2026-05-04 14:47 | 44.82420 | -122.97718 | 38978 ft | 494 kts | 169° |
| 2026-05-04 14:47 | 44.75572 | -122.97015 | 38976 ft | 493 kts | 169° |
| 2026-05-04 14:48 | 44.68783 | -122.96319 | 38988 ft | 491 kts | 169° |
| 2026-05-04 14:48 | 44.61975 | -122.95623 | 38985 ft | 490 kts | 169° |
| 2026-05-04 14:49 | 44.55187 | -122.94929 | 38991 ft | 488 kts | 169° |
| 2026-05-04 14:49 | 44.48413 | -122.94257 | 39010 ft | 488 kts | 171° |
| 2026-05-04 14:50 | 44.41612 | -122.93981 | 38990 ft | 489 kts | 173° |
| 2026-05-04 14:50 | 44.34807 | -122.93872 | 38993 ft | 488 kts | 173° |
| 2026-05-04 14:51 | 44.28067 | -122.93726 | 39023 ft | 488 kts | 173° |
| 2026-05-04 14:51 | 44.21286 | -122.93532 | 39010 ft | 487 kts | 172° |
| 2026-05-04 14:52 | 44.14523 | -122.93325 | 39016 ft | 486 kts | 172° |
| 2026-05-04 14:52 | 44.07811 | -122.93117 | 39018 ft | 485 kts | 172° |
| 2026-05-04 14:53 | 44.01067 | -122.92911 | 39010 ft | 484 kts | 172° |
| 2026-05-04 14:53 | 43.94337 | -122.92708 | 39003 ft | 483 kts | 172° |
| 2026-05-04 14:54 | 43.87617 | -122.92505 | 38990 ft | 483 kts | 172° |
| 2026-05-04 14:54 | 43.80898 | -122.92303 | 38995 ft | 483 kts | 172° |
| 2026-05-04 14:55 | 43.74226 | -122.92103 | 38997 ft | 483 kts | 172° |
| 2026-05-04 14:55 | 43.67509 | -122.91902 | 38990 ft | 483 kts | 172° |
| 2026-05-04 14:56 | 43.60799 | -122.91701 | 38995 ft | 482 kts | 172° |
| 2026-05-04 14:56 | 43.54091 | -122.91502 | 38983 ft | 482 kts | 172° |
| 2026-05-04 14:57 | 43.47428 | -122.91304 | 38975 ft | 482 kts | 172° |
| 2026-05-04 14:57 | 43.40719 | -122.91104 | 38995 ft | 482 kts | 172° |
| 2026-05-04 14:58 | 43.34014 | -122.90906 | 38977 ft | 482 kts | 172° |
| 2026-05-04 14:58 | 43.28453 | -122.90743 | 38973 ft | 481 kts | 172° |
| 2026-05-04 14:59 | 43.20679 | -122.90513 | 38984 ft | 480 kts | 173° |
| 2026-05-04 15:00 | 43.10684 | -122.90220 | 38974 ft | 477 kts | 173° |
| 2026-05-04 15:00 | 43.04057 | -122.90027 | 38969 ft | 476 kts | 173° |
| 2026-05-04 15:01 | 42.94203 | -122.89738 | 38962 ft | 473 kts | 173° |
| 2026-05-04 15:01 | 42.87629 | -122.89545 | 38971 ft | 472 kts | 173° |
| 2026-05-04 15:02 | 42.81061 | -122.89354 | 38956 ft | 472 kts | 173° |
| 2026-05-04 15:02 | 42.74494 | -122.89162 | 38968 ft | 472 kts | 173° |
| 2026-05-04 15:03 | 42.67937 | -122.88973 | 38965 ft | 471 kts | 173° |
| 2026-05-04 15:03 | 42.61429 | -122.88785 | 38971 ft | 471 kts | 173° |
| 2026-05-04 15:04 | 42.54876 | -122.88595 | 38988 ft | 471 kts | 174° |
| 2026-05-04 15:04 | 42.48326 | -122.88407 | 38987 ft | 471 kts | 174° |
| 2026-05-04 15:05 | 42.41781 | -122.88217 | 38989 ft | 470 kts | 174° |
| 2026-05-04 15:05 | 42.35290 | -122.88027 | 39000 ft | 470 kts | 174° |
| 2026-05-04 15:06 | 42.28753 | -122.87836 | 38993 ft | 470 kts | 174° |
| 2026-05-04 15:07 | 42.18953 | -122.87550 | 38988 ft | 470 kts | 174° |
| 2026-05-04 15:07 | 42.12413 | -122.87360 | 38971 ft | 469 kts | 174° |
| 2026-05-04 15:08 | 42.05923 | -122.87172 | 38968 ft | 470 kts | 174° |